Terminal Aerodrome Forecast
Issued by NWS Wakefield, VA

Home | Current Version | Previous Version | Text Only | Print | Product List | Glossary On
Versions: 1 2 3 4 5 6 7 8 9 10 11 12 13 14 15 16 17
000
FTUS41 KAKQ 282320
TAFRIC
TAF
KRIC 282320Z 2900/2924 18005KT P6SM SCT060 BKN250
     FM290900 18003KT P6SM MIFG FEW004 BKN040 BKN250
     FM291300 21005KT P6SM BKN040 BKN250
     FM291600 18008KT P6SM VCSH SCT050 BKN150=

USA.gov is the U.S. government's official web portal to all federal, state and local government web resources and services.